createdAt,value
2023-06-19T00:00:16.800Z,18.56
2023-06-19T00:02:45.535Z,18.52
2023-06-19T00:05:14.573Z,18.55
2023-06-19T00:07:42.262Z,18.51
2023-06-19T00:10:11.406Z,18.47
2023-06-19T00:12:39.041Z,18.46
2023-06-19T00:15:08.563Z,18.43
2023-06-19T00:17:38.691Z,18.39
2023-06-19T00:20:07.803Z,18.37
2023-06-19T00:22:35.561Z,18.32
2023-06-19T00:25:03.411Z,18.27
2023-06-19T00:27:32.506Z,18.23
2023-06-19T00:30:03.413Z,18.23
2023-06-19T00:32:31.724Z,18.24
2023-06-19T00:35:02.000Z,18.23
2023-06-19T00:37:33.159Z,18.22
2023-06-19T00:40:00.885Z,18.20
2023-06-19T00:42:28.525Z,18.21
2023-06-19T00:44:57.777Z,18.21
2023-06-19T00:47:26.778Z,18.22
2023-06-19T00:49:54.826Z,18.20
2023-06-19T00:52:22.483Z,18.19
2023-06-19T00:54:50.247Z,18.19
2023-06-19T00:57:18.073Z,18.22
2023-06-19T00:59:45.847Z,18.21
2023-06-19T01:02:15.192Z,18.20
2023-06-19T01:04:42.923Z,18.22
2023-06-19T01:07:14.763Z,18.22
2023-06-19T01:09:48.768Z,18.20
2023-06-19T01:12:20.352Z,18.18
2023-06-19T01:14:55.172Z,18.20
2023-06-19T01:17:24.782Z,18.19
2023-06-19T01:19:52.696Z,18.19
2023-06-19T01:22:31.589Z,18.20
2023-06-19T01:24:59.566Z,18.19
2023-06-19T01:27:31.017Z,18.17
2023-06-19T01:30:00.229Z,18.17
2023-06-19T01:32:33.675Z,18.17
2023-06-19T01:35:03.242Z,18.15
2023-06-19T01:37:34.465Z,18.14
2023-06-19T01:40:06.935Z,18.15
2023-06-19T01:42:36.233Z,18.14
2023-06-19T01:45:04.843Z,18.11
2023-06-19T01:47:32.743Z,18.10
2023-06-19T01:50:00.501Z,18.08
2023-06-19T01:52:28.538Z,18.05
2023-06-19T01:54:57.856Z,18.01
2023-06-19T01:57:25.804Z,18.00
2023-06-19T01:59:53.454Z,17.92
2023-06-19T02:02:21.132Z,17.92
2023-06-19T02:04:48.887Z,17.91
2023-06-19T02:07:16.653Z,17.90
2023-06-19T02:09:44.322Z,17.88
2023-06-19T02:12:13.468Z,17.87
2023-06-19T02:14:41.147Z,17.87
2023-06-19T02:17:08.807Z,17.85
2023-06-19T02:19:36.682Z,17.80
2023-06-19T02:22:04.634Z,17.77
2023-06-19T02:24:32.357Z,17.78
2023-06-19T02:27:00.084Z,17.78
2023-06-19T02:29:30.601Z,17.78
2023-06-19T02:31:58.271Z,17.79
2023-06-19T02:34:26.414Z,17.79
2023-06-19T02:36:54.340Z,17.81
2023-06-19T02:39:22.949Z,17.82
2023-06-19T02:41:50.641Z,17.84
2023-06-19T02:44:18.267Z,17.86
2023-06-19T02:46:47.394Z,17.92
2023-06-19T02:49:15.160Z,17.99
2023-06-19T02:51:42.840Z,18.05
2023-06-19T02:54:10.589Z,18.12
2023-06-19T02:56:38.250Z,18.19
2023-06-19T02:59:06.055Z,18.23
2023-06-19T03:01:35.216Z,18.31
2023-06-19T03:04:04.475Z,18.38
2023-06-19T03:06:34.412Z,18.47
2023-06-19T03:09:02.037Z,18.59
2023-06-19T03:11:29.737Z,18.67
2023-06-19T03:13:58.559Z,18.74
2023-06-19T03:16:26.233Z,18.79
2023-06-19T03:18:53.909Z,18.92
2023-06-19T03:21:23.171Z,19.00
2023-06-19T03:23:51.277Z,19.11
2023-06-19T03:26:20.763Z,19.26
2023-06-19T03:28:48.694Z,19.71
2023-06-19T03:31:17.602Z,20.21
2023-06-19T03:33:45.364Z,20.51
2023-06-19T03:36:13.073Z,20.52
2023-06-19T03:38:42.194Z,20.48
2023-06-19T03:41:09.965Z,20.33
2023-06-19T03:43:37.644Z,20.24
2023-06-19T03:46:05.412Z,20.22
2023-06-19T03:48:33.115Z,20.17
2023-06-19T03:51:01.861Z,20.13
2023-06-19T03:53:29.709Z,20.08
2023-06-19T03:55:58.848Z,20.05
2023-06-19T03:58:26.630Z,20.00
2023-06-19T04:00:54.347Z,19.99
2023-06-19T04:03:22.185Z,19.93
2023-06-19T04:05:49.954Z,19.83
2023-06-19T04:08:17.858Z,19.77
2023-06-19T04:10:45.714Z,19.67
2023-06-19T04:13:14.831Z,19.65
2023-06-19T04:15:45.464Z,19.57
2023-06-19T04:18:14.229Z,19.58
2023-06-19T04:20:42.196Z,19.60
2023-06-19T04:23:09.885Z,19.58
2023-06-19T04:25:37.658Z,19.53
2023-06-19T04:28:05.730Z,19.56
2023-06-19T04:30:34.740Z,19.50
2023-06-19T04:33:02.644Z,19.47
2023-06-19T04:35:30.322Z,19.50
2023-06-19T04:38:02.176Z,19.50
2023-06-19T04:40:29.828Z,19.55
2023-06-19T04:42:57.497Z,19.61
2023-06-19T04:45:25.203Z,19.60
2023-06-19T04:47:54.605Z,19.66
2023-06-19T04:50:23.068Z,19.69
2023-06-19T04:52:51.833Z,19.66
2023-06-19T04:55:20.661Z,19.72
2023-06-19T04:57:48.525Z,19.77
2023-06-19T05:00:20.107Z,19.77
2023-06-19T05:02:48.580Z,19.72
2023-06-19T05:05:18.800Z,19.64
2023-06-19T05:07:47.836Z,19.68
2023-06-19T05:10:15.628Z,19.70
2023-06-19T05:12:43.325Z,19.72
2023-06-19T05:15:12.170Z,19.76
2023-06-19T05:17:40.385Z,19.74
2023-06-19T05:20:09.408Z,19.77
2023-06-19T05:22:39.038Z,19.79
2023-06-19T05:25:07.728Z,19.77
2023-06-19T05:27:35.409Z,19.77
2023-06-19T05:30:03.384Z,19.83
2023-06-19T05:32:31.113Z,19.89
2023-06-19T05:34:58.940Z,19.91
2023-06-19T05:37:28.187Z,19.93
2023-06-19T05:39:58.217Z,19.96
2023-06-19T05:42:25.856Z,20.01
2023-06-19T05:44:53.518Z,20.02
2023-06-19T05:47:21.885Z,20.04
2023-06-19T05:49:50.812Z,20.03
2023-06-19T05:52:18.882Z,20.02
2023-06-19T05:54:46.556Z,20.02
2023-06-19T05:57:17.179Z,19.99
2023-06-19T05:59:44.871Z,19.91
2023-06-19T06:02:12.704Z,19.89
2023-06-19T06:04:40.626Z,19.94
2023-06-19T06:07:09.085Z,19.94
2023-06-19T06:09:36.895Z,19.95
2023-06-19T06:12:05.124Z,19.95
2023-06-19T06:14:34.125Z,19.98
2023-06-19T06:17:01.888Z,19.99
2023-06-19T06:19:31.601Z,19.98
2023-06-19T06:22:00.756Z,20.00
2023-06-19T06:24:28.514Z,20.05
2023-06-19T06:26:56.405Z,20.07
2023-06-19T06:29:24.056Z,20.03
2023-06-19T06:31:53.825Z,20.06
2023-06-19T06:34:21.560Z,20.08
2023-06-19T06:37:00.819Z,20.00
2023-06-19T06:39:32.826Z,20.02
2023-06-19T06:42:00.486Z,20.07
2023-06-19T06:44:28.660Z,20.11
2023-06-19T06:46:57.705Z,20.14
2023-06-19T06:49:25.338Z,20.19
2023-06-19T06:51:54.872Z,20.16
2023-06-19T06:54:23.862Z,20.19
2023-06-19T06:56:53.738Z,20.23
2023-06-19T06:59:21.537Z,20.28
2023-06-19T07:01:49.157Z,20.38
2023-06-19T07:04:18.167Z,20.43
2023-06-19T07:06:45.957Z,20.50
2023-06-19T07:09:14.074Z,20.59
2023-06-19T07:11:41.859Z,20.61
2023-06-19T07:14:09.514Z,20.70
2023-06-19T07:16:37.226Z,20.75
2023-06-19T07:19:05.052Z,20.85
2023-06-19T07:21:34.951Z,20.99
2023-06-19T07:24:03.106Z,21.10
2023-06-19T07:26:30.788Z,21.21
2023-06-19T07:28:58.605Z,21.22
2023-06-19T07:31:26.319Z,21.23
2023-06-19T07:33:54.070Z,21.20
2023-06-19T07:36:21.765Z,21.14
2023-06-19T07:38:51.021Z,21.13
2023-06-19T07:41:18.816Z,21.12
2023-06-19T07:43:46.488Z,21.03
2023-06-19T07:46:14.277Z,20.93
2023-06-19T07:48:41.960Z,20.89
2023-06-19T07:51:09.644Z,20.84
2023-06-19T07:53:37.311Z,20.83
2023-06-19T07:56:06.457Z,20.77
2023-06-19T07:58:34.178Z,20.67
2023-06-19T08:01:01.859Z,20.67
2023-06-19T08:03:29.894Z,20.54
2023-06-19T08:05:57.821Z,20.49
2023-06-19T08:08:25.730Z,20.43
2023-06-19T08:10:53.681Z,20.41
2023-06-19T08:13:22.720Z,20.32
2023-06-19T08:15:50.549Z,20.32
2023-06-19T08:18:18.546Z,20.33
2023-06-19T08:20:46.263Z,20.38
2023-06-19T08:23:13.914Z,20.43
2023-06-19T08:25:41.585Z,20.55
2023-06-19T08:28:10.148Z,20.61
2023-06-19T08:30:39.329Z,20.79
2023-06-19T08:33:07.052Z,20.96
2023-06-19T08:35:34.786Z,21.19
2023-06-19T08:38:02.425Z,21.44
2023-06-19T08:40:30.105Z,21.72
2023-06-19T08:42:58.019Z,21.77
2023-06-19T08:45:27.830Z,22.00
2023-06-19T08:48:01.879Z,22.21
2023-06-19T08:50:29.542Z,22.42
2023-06-19T08:52:57.232Z,22.59
2023-06-19T08:55:24.977Z,22.93
2023-06-19T08:57:53.854Z,23.56
2023-06-19T09:00:26.814Z,24.10
2023-06-19T09:03:13.521Z,24.77
2023-06-19T09:05:50.832Z,25.25
2023-06-19T09:08:19.787Z,25.57
2023-06-19T09:11:00.091Z,25.33
2023-06-19T09:13:29.795Z,25.57
2023-06-19T09:16:02.931Z,25.86
2023-06-19T09:18:33.975Z,26.34
2023-06-19T09:21:01.720Z,26.70
2023-06-19T09:23:29.588Z,26.87
2023-06-19T09:25:59.922Z,27.23
2023-06-19T09:28:29.410Z,27.24
2023-06-19T09:30:59.770Z,27.71
2023-06-19T09:33:28.544Z,27.88
2023-06-19T09:35:58.730Z,27.74
2023-06-19T09:38:29.568Z,27.68
2023-06-19T09:41:00.397Z,27.93
2023-06-19T09:43:35.263Z,28.02
2023-06-19T09:46:05.013Z,28.28
2023-06-19T09:48:35.812Z,28.51
2023-06-19T09:51:14.190Z,28.58
2023-06-19T09:53:42.453Z,28.61
2023-06-19T09:56:11.102Z,28.72
2023-06-19T09:58:39.663Z,28.99
2023-06-19T10:01:08.616Z,29.02
2023-06-19T10:03:37.802Z,28.80
2023-06-19T10:06:07.464Z,28.75
2023-06-19T10:08:42.068Z,28.46
2023-06-19T10:11:09.899Z,28.40
2023-06-19T10:13:39.964Z,28.49
2023-06-19T10:16:08.207Z,28.64
2023-06-19T10:18:47.137Z,29.05
2023-06-19T10:21:19.435Z,29.17
2023-06-19T10:23:55.964Z,29.23
2023-06-19T10:26:32.292Z,29.35
2023-06-19T10:29:00.052Z,29.82
2023-06-19T10:31:29.833Z,29.99
2023-06-19T10:33:57.837Z,30.22
2023-06-19T10:36:27.573Z,30.36
2023-06-19T10:38:56.371Z,30.15
2023-06-19T10:41:26.074Z,29.82
2023-06-19T10:43:58.521Z,29.66
2023-06-19T10:46:31.223Z,29.62
2023-06-19T10:49:02.523Z,30.10
2023-06-19T10:51:32.498Z,30.17
2023-06-19T10:54:00.380Z,30.15
2023-06-19T10:56:28.376Z,30.29
2023-06-19T10:59:00.292Z,30.11
2023-06-19T11:01:35.171Z,30.13
2023-06-19T11:04:04.700Z,30.08
2023-06-19T11:06:36.565Z,30.05
2023-06-19T11:09:06.173Z,29.88
2023-06-19T11:11:38.329Z,29.78
2023-06-19T11:14:06.441Z,29.77
2023-06-19T11:16:34.762Z,29.60
2023-06-19T11:19:03.149Z,29.70
2023-06-19T11:21:39.496Z,29.80
2023-06-19T11:24:12.347Z,29.78
2023-06-19T11:26:40.879Z,29.64
2023-06-19T11:29:19.419Z,29.50
2023-06-19T11:31:48.503Z,29.32
2023-06-19T11:34:16.672Z,29.23
2023-06-19T11:36:46.887Z,29.28
2023-06-19T11:39:17.139Z,29.44
2023-06-19T11:41:46.291Z,29.63
2023-06-19T11:44:13.968Z,29.75
2023-06-19T11:46:42.034Z,29.93
2023-06-19T11:49:11.210Z,30.27
2023-06-19T11:51:39.006Z,30.62
2023-06-19T11:54:10.533Z,30.69
2023-06-19T11:56:38.727Z,31.05
2023-06-19T11:59:06.795Z,31.24
2023-06-19T12:01:35.744Z,31.39
2023-06-19T12:04:04.219Z,31.56
2023-06-19T12:06:32.498Z,31.77
2023-06-19T12:09:00.867Z,31.94
2023-06-19T12:11:29.851Z,31.95
2023-06-19T12:13:58.849Z,31.90
2023-06-19T12:16:26.984Z,31.99
2023-06-19T12:18:55.446Z,32.13
2023-06-19T12:21:34.908Z,32.04
2023-06-19T12:24:06.431Z,32.05
2023-06-19T12:26:37.703Z,32.13
2023-06-19T12:29:05.925Z,31.94
2023-06-19T12:31:34.882Z,32.16
2023-06-19T12:34:08.130Z,31.82
2023-06-19T12:36:48.940Z,31.40
2023-06-19T12:39:17.926Z,31.14
2023-06-19T12:41:46.988Z,30.53
2023-06-19T12:44:14.749Z,30.08
2023-06-19T12:46:43.475Z,29.80
2023-06-19T12:49:11.399Z,29.87
2023-06-19T12:51:39.141Z,29.84
2023-06-19T12:54:06.885Z,30.03
2023-06-19T12:56:34.736Z,30.58
2023-06-19T12:59:03.790Z,30.45
2023-06-19T13:01:31.576Z,30.70
2023-06-19T13:03:59.398Z,30.91
2023-06-19T13:06:27.128Z,30.93
2023-06-19T13:08:55.213Z,30.51
2023-06-19T13:11:22.922Z,29.68
2023-06-19T13:13:50.669Z,29.17
2023-06-19T13:16:27.137Z,28.16
2023-06-19T13:19:07.892Z,28.00
2023-06-19T13:21:36.944Z,27.86
2023-06-19T13:24:05.151Z,27.93
2023-06-19T13:26:32.877Z,27.83
2023-06-19T13:29:01.833Z,27.98
2023-06-19T13:31:30.957Z,27.85
2023-06-19T13:33:59.653Z,27.54
2023-06-19T13:36:27.975Z,27.45
2023-06-19T13:38:56.069Z,27.35
2023-06-19T13:41:24.834Z,27.39
2023-06-19T13:43:55.012Z,27.31
2023-06-19T13:46:23.700Z,27.11
2023-06-19T13:48:53.430Z,27.09
2023-06-19T13:51:21.674Z,26.88
2023-06-19T13:53:49.929Z,26.40
2023-06-19T13:56:17.942Z,26.36
2023-06-19T13:58:46.083Z,26.10
2023-06-19T14:01:13.889Z,25.33
2023-06-19T14:03:41.746Z,25.04
2023-06-19T14:06:11.014Z,25.19
2023-06-19T14:08:40.721Z,25.33
2023-06-19T14:11:08.721Z,25.40
2023-06-19T14:13:36.501Z,25.48
2023-06-19T14:16:04.439Z,25.62
2023-06-19T14:18:32.129Z,25.70
2023-06-19T14:20:59.832Z,26.15
2023-06-19T14:23:28.910Z,26.35
2023-06-19T14:25:56.607Z,26.43
2023-06-19T14:28:24.302Z,26.03
2023-06-19T14:30:51.933Z,26.40
2023-06-19T14:33:19.588Z,26.67
2023-06-19T14:35:47.429Z,26.90
2023-06-19T14:38:15.593Z,27.28
2023-06-19T14:40:45.838Z,27.55
2023-06-19T14:43:13.519Z,27.62
2023-06-19T14:45:42.223Z,27.65
2023-06-19T14:48:09.964Z,27.69
2023-06-19T14:50:38.648Z,27.57
2023-06-19T14:53:06.390Z,27.41
2023-06-19T14:55:34.187Z,27.08
2023-06-19T14:58:03.370Z,27.13
2023-06-19T15:00:31.054Z,26.80
2023-06-19T15:02:58.886Z,26.52
2023-06-19T15:05:26.620Z,26.62
2023-06-19T15:07:54.249Z,27.00
2023-06-19T15:10:22.173Z,27.06
2023-06-19T15:12:50.197Z,27.30
2023-06-19T15:15:19.260Z,27.26
2023-06-19T15:17:47.066Z,27.70
2023-06-19T15:20:17.548Z,27.88
2023-06-19T15:22:45.357Z,27.73
2023-06-19T15:25:13.154Z,27.39
2023-06-19T15:27:40.916Z,27.24
2023-06-19T15:30:09.685Z,27.06
2023-06-19T15:32:38.705Z,26.96
2023-06-19T15:35:07.434Z,26.90
2023-06-19T15:37:35.168Z,26.81
2023-06-19T15:40:03.400Z,26.92
2023-06-19T15:42:32.372Z,26.96
2023-06-19T15:45:00.436Z,27.07
2023-06-19T15:47:28.208Z,27.13
2023-06-19T15:49:57.264Z,27.37
2023-06-19T15:52:25.090Z,27.50
2023-06-19T15:54:52.999Z,27.70
2023-06-19T15:57:20.765Z,27.58
2023-06-19T15:59:52.729Z,28.10
2023-06-19T16:02:20.817Z,27.97
2023-06-19T16:04:48.620Z,27.35
2023-06-19T16:07:17.621Z,26.82
2023-06-19T16:12:16.093Z,26.74
2023-06-19T16:14:43.801Z,27.31
2023-06-19T16:17:12.236Z,27.11
2023-06-19T16:19:40.000Z,27.39
2023-06-19T16:22:07.761Z,27.42
2023-06-19T16:24:36.797Z,27.48
2023-06-19T16:27:04.748Z,27.11
2023-06-19T16:29:32.570Z,26.97
2023-06-19T16:32:08.778Z,26.82
2023-06-19T16:34:37.172Z,26.75
2023-06-19T16:37:05.194Z,26.73
2023-06-19T16:39:33.342Z,26.87
2023-06-19T16:42:03.015Z,26.96
2023-06-19T16:44:30.840Z,26.98
2023-06-19T16:46:58.557Z,26.37
2023-06-19T16:49:26.330Z,25.75
2023-06-19T16:51:54.048Z,25.40
2023-06-19T16:54:21.861Z,25.77
2023-06-19T16:56:49.566Z,25.73
2023-06-19T16:59:18.907Z,25.72
2023-06-19T17:01:47.991Z,25.28
2023-06-19T17:04:15.814Z,25.27
2023-06-19T17:06:43.580Z,24.89
2023-06-19T17:09:11.293Z,24.42
2023-06-19T17:11:42.499Z,23.95
2023-06-19T17:14:10.776Z,23.87
2023-06-19T17:16:39.958Z,23.89
2023-06-19T17:19:07.725Z,23.92
2023-06-19T17:21:35.674Z,23.84
2023-06-19T17:24:03.501Z,23.71
2023-06-19T17:26:31.277Z,23.91
2023-06-19T17:28:59.165Z,23.76
2023-06-19T17:31:26.849Z,23.92
2023-06-19T17:33:55.943Z,24.01
2023-06-19T17:36:23.644Z,23.92
2023-06-19T17:38:51.402Z,24.01
2023-06-19T17:41:19.116Z,24.02
2023-06-19T17:43:46.842Z,24.14
2023-06-19T17:46:14.529Z,24.12
2023-06-19T17:48:43.204Z,24.17
2023-06-19T17:51:12.424Z,24.13
2023-06-19T17:53:40.863Z,24.11
2023-06-19T17:56:08.578Z,24.10
2023-06-19T17:58:36.613Z,24.08
2023-06-19T18:01:04.302Z,24.02
2023-06-19T18:03:32.737Z,23.78
2023-06-19T18:06:00.610Z,23.69
2023-06-19T18:08:29.604Z,23.79
2023-06-19T18:10:58.845Z,23.87
2023-06-19T18:13:26.724Z,23.86
2023-06-19T18:16:10.719Z,23.75
2023-06-19T18:18:40.051Z,23.72
2023-06-19T18:21:07.825Z,23.74
2023-06-19T18:23:36.943Z,23.74
2023-06-19T18:26:04.616Z,23.74
2023-06-19T18:28:32.453Z,23.56
2023-06-19T18:31:00.330Z,23.48
2023-06-19T18:33:28.005Z,23.43
2023-06-19T18:35:55.735Z,23.55
2023-06-19T18:38:23.483Z,23.68
2023-06-19T18:40:52.681Z,23.68
2023-06-19T18:43:20.371Z,23.77
2023-06-19T18:45:48.299Z,23.80
2023-06-19T18:48:16.136Z,23.84
2023-06-19T18:50:43.905Z,23.90
2023-06-19T18:53:12.391Z,23.91
2023-06-19T18:55:41.317Z,23.71
2023-06-19T18:58:12.323Z,23.57
2023-06-19T19:00:40.169Z,23.70
2023-06-19T19:03:08.748Z,23.47
2023-06-19T19:05:37.070Z,23.30
2023-06-19T19:08:05.192Z,23.21
2023-06-19T19:10:32.875Z,23.09
2023-06-19T19:13:00.966Z,23.07
2023-06-19T19:15:29.984Z,23.12
2023-06-19T19:17:57.950Z,23.08
2023-06-19T19:20:26.283Z,23.03
2023-06-19T19:22:54.197Z,22.95
2023-06-19T19:25:21.888Z,22.57
2023-06-19T19:27:49.553Z,22.38
2023-06-19T19:30:17.364Z,22.19
2023-06-19T19:32:46.607Z,21.95
2023-06-19T19:35:14.293Z,21.69
2023-06-19T19:37:42.005Z,21.46
2023-06-19T19:40:11.032Z,21.29
2023-06-19T19:42:38.720Z,21.09
2023-06-19T19:45:07.255Z,20.89
2023-06-19T19:47:36.182Z,20.68
2023-06-19T19:50:05.815Z,20.57
2023-06-19T19:52:33.490Z,20.41
2023-06-19T19:55:01.223Z,20.27
2023-06-19T19:57:28.832Z,20.13
2023-06-19T19:59:56.477Z,20.04
2023-06-19T20:02:24.237Z,19.96
2023-06-19T20:04:53.249Z,19.85
2023-06-19T20:07:22.333Z,19.73
2023-06-19T20:09:50.005Z,19.65
2023-06-19T20:12:21.834Z,19.55
2023-06-19T20:14:50.085Z,19.46
2023-06-19T20:17:17.779Z,19.41
2023-06-19T20:19:45.720Z,19.33
2023-06-19T20:22:13.522Z,19.25
2023-06-19T20:24:42.590Z,19.20
2023-06-19T20:27:11.237Z,19.11
2023-06-19T20:29:38.959Z,19.07
2023-06-19T20:32:07.667Z,19.01
2023-06-19T20:34:35.347Z,18.95
2023-06-19T20:37:03.893Z,18.89
2023-06-19T20:39:32.038Z,18.86
2023-06-19T20:42:03.521Z,18.79
2023-06-19T20:44:31.577Z,18.76
2023-06-19T20:47:01.636Z,18.72
2023-06-19T20:49:29.549Z,18.67
2023-06-19T20:51:57.319Z,18.65
2023-06-19T20:54:24.987Z,18.60
2023-06-19T20:56:52.659Z,18.58
2023-06-19T20:59:21.991Z,18.55
2023-06-19T21:01:49.735Z,18.49
2023-06-19T21:04:17.670Z,18.46
2023-06-19T21:06:46.074Z,18.43
2023-06-19T21:09:15.364Z,18.37
2023-06-19T21:11:44.619Z,18.32
2023-06-19T21:14:12.625Z,18.26
2023-06-19T21:16:41.740Z,18.22
2023-06-19T21:19:09.547Z,18.19
2023-06-19T21:21:37.161Z,18.14
2023-06-19T21:24:05.322Z,18.11
2023-06-19T21:26:32.999Z,18.07
2023-06-19T21:29:00.720Z,18.03
2023-06-19T21:31:28.340Z,17.97
2023-06-19T21:33:57.841Z,17.93
2023-06-19T21:36:25.482Z,17.86
2023-06-19T21:38:53.156Z,17.82
2023-06-19T21:41:21.044Z,17.78
2023-06-19T21:43:49.032Z,17.73
2023-06-19T21:46:16.828Z,17.68
2023-06-19T21:48:44.546Z,17.63
2023-06-19T21:51:13.616Z,17.61
2023-06-19T21:53:41.307Z,17.55
2023-06-19T21:56:08.970Z,17.50
2023-06-19T21:58:36.706Z,17.50
2023-06-19T22:01:04.491Z,17.45
2023-06-19T22:03:32.206Z,17.43
2023-06-19T22:06:00.625Z,17.39
2023-06-19T22:08:41.516Z,17.35
2023-06-19T22:11:10.272Z,17.31
2023-06-19T22:13:37.979Z,17.28
2023-06-19T22:16:05.998Z,17.24
2023-06-19T22:18:33.714Z,17.23
2023-06-19T22:21:02.629Z,17.21
2023-06-19T22:23:31.965Z,17.19
2023-06-19T22:26:00.032Z,17.16
2023-06-19T22:28:27.743Z,17.12
2023-06-19T22:30:55.531Z,17.11
2023-06-19T22:33:23.282Z,17.07
2023-06-19T22:35:50.923Z,17.05
2023-06-19T22:38:18.610Z,17.02
2023-06-19T22:40:47.715Z,17.00
2023-06-19T22:43:15.500Z,16.97
2023-06-19T22:45:43.380Z,16.93
2023-06-19T22:48:11.175Z,16.92
2023-06-19T22:50:39.023Z,16.90
2023-06-19T22:53:06.785Z,16.85
2023-06-19T22:55:34.432Z,16.84
2023-06-19T22:58:03.840Z,16.80
2023-06-19T23:00:31.504Z,16.79
2023-06-19T23:02:59.354Z,16.75
2023-06-19T23:05:27.596Z,16.72
2023-06-19T23:07:56.647Z,16.69
2023-06-19T23:10:24.277Z,16.64
2023-06-19T23:12:51.982Z,16.58
2023-06-19T23:15:21.215Z,16.54
2023-06-19T23:17:49.171Z,16.48
2023-06-19T23:20:18.570Z,16.40
2023-06-19T23:22:48.789Z,16.34
2023-06-19T23:25:16.744Z,16.26
2023-06-19T23:27:44.448Z,16.20
2023-06-19T23:30:12.771Z,16.17
2023-06-19T23:32:41.902Z,16.12
2023-06-19T23:35:10.410Z,16.10
2023-06-19T23:37:38.179Z,16.06
2023-06-19T23:40:08.859Z,16.01
2023-06-19T23:42:36.820Z,15.99
2023-06-19T23:45:04.918Z,15.95
2023-06-19T23:47:32.693Z,15.89
2023-06-19T23:50:01.859Z,15.87
2023-06-19T23:52:42.134Z,15.82
2023-06-19T23:55:11.225Z,15.77
2023-06-19T23:57:38.891Z,15.75
